createdAt,value
2023-05-07T00:00:13.837Z,999.83
2023-05-07T00:01:13.286Z,999.84
2023-05-07T00:02:13.394Z,999.86
2023-05-07T00:03:13.353Z,999.86
2023-05-07T00:04:14.134Z,999.87
2023-05-07T00:05:14.291Z,999.86
2023-05-07T00:06:13.593Z,999.87
2023-05-07T00:07:13.480Z,999.84
2023-05-07T00:08:13.487Z,999.87
2023-05-07T00:09:13.896Z,999.86
2023-05-07T00:10:13.265Z,999.84
2023-05-07T00:11:13.963Z,999.89
2023-05-07T00:12:13.037Z,999.87
2023-05-07T00:13:13.460Z,999.86
2023-05-07T00:14:13.662Z,999.89
2023-05-07T00:15:13.832Z,999.86
2023-05-07T00:16:14.358Z,999.90
2023-05-07T00:17:13.449Z,999.91
2023-05-07T00:18:13.525Z,999.92
2023-05-07T00:19:14.316Z,999.96
2023-05-07T00:20:13.660Z,999.96
2023-05-07T00:21:13.710Z,999.97
2023-05-07T00:22:13.748Z,999.91
2023-05-07T00:23:13.929Z,999.95
2023-05-07T00:24:13.750Z,999.97
2023-05-07T00:25:13.662Z,999.96
2023-05-07T00:26:13.781Z,999.97
2023-05-07T00:27:13.737Z,999.99
2023-05-07T00:28:13.816Z,999.97
2023-05-07T00:29:13.892Z,999.96
2023-05-07T00:30:13.138Z,999.94
2023-05-07T00:31:13.267Z,999.93
2023-05-07T00:32:13.673Z,999.94
2023-05-07T00:33:13.956Z,999.94
2023-05-07T00:34:13.145Z,999.91
2023-05-07T00:35:13.482Z,999.92
2023-05-07T00:36:13.454Z,999.93
2023-05-07T00:37:13.714Z,999.88
2023-05-07T00:38:13.933Z,999.90
2023-05-07T00:39:13.137Z,999.88
2023-05-07T00:40:13.214Z,999.89
2023-05-07T00:41:13.403Z,999.90
2023-05-07T00:42:13.230Z,999.90
2023-05-07T00:43:13.210Z,999.91
2023-05-07T00:44:13.273Z,999.90
2023-05-07T00:45:13.736Z,999.91
2023-05-07T00:46:13.925Z,999.94
2023-05-07T00:47:12.901Z,999.92
2023-05-07T00:48:12.989Z,999.91
2023-05-07T00:49:13.138Z,999.92
2023-05-07T00:50:13.290Z,999.93
2023-05-07T00:51:13.623Z,999.94
2023-05-07T00:52:13.665Z,999.93
2023-05-07T00:53:13.737Z,999.97
2023-05-07T00:54:13.852Z,999.98
2023-05-07T00:55:13.716Z,1000.00
2023-05-07T00:56:13.704Z,1000.00
2023-05-07T00:57:13.642Z,999.99
2023-05-07T00:58:13.538Z,999.95
2023-05-07T00:59:13.695Z,999.95
2023-05-07T01:00:14.265Z,999.93
2023-05-07T01:01:13.730Z,999.92
2023-05-07T01:02:13.764Z,999.91
2023-05-07T01:03:13.946Z,999.90
2023-05-07T01:04:13.453Z,999.86
2023-05-07T01:05:12.882Z,999.84
2023-05-07T01:06:13.336Z,999.83
2023-05-07T01:07:13.534Z,999.82
2023-05-07T01:08:13.489Z,999.81
2023-05-07T01:09:13.470Z,999.80
2023-05-07T01:10:14.168Z,999.75
2023-05-07T01:11:13.333Z,999.77
2023-05-07T01:12:13.531Z,999.77
2023-05-07T01:13:13.532Z,999.76
2023-05-07T01:14:13.422Z,999.71
2023-05-07T01:15:13.722Z,999.74
2023-05-07T01:16:13.939Z,999.73
2023-05-07T01:17:13.117Z,999.73
2023-05-07T01:18:13.532Z,999.71
2023-05-07T01:19:13.610Z,999.69
2023-05-07T01:20:14.020Z,999.70
2023-05-07T01:21:13.039Z,999.70
2023-05-07T01:22:12.869Z,999.66
2023-05-07T01:23:13.762Z,999.69
2023-05-07T01:24:13.590Z,999.67
2023-05-07T01:25:13.651Z,999.68
2023-05-07T01:26:13.597Z,999.71
2023-05-07T01:27:13.584Z,999.71
2023-05-07T01:28:13.522Z,999.68
2023-05-07T01:29:13.430Z,999.69
2023-05-07T01:30:13.530Z,999.65
2023-05-07T01:31:14.193Z,999.67
2023-05-07T01:32:45.200Z,999.66
2023-05-07T01:33:13.856Z,999.69
2023-05-07T01:34:14.075Z,999.69
2023-05-07T01:35:12.961Z,999.70
2023-05-07T01:36:12.858Z,999.72
2023-05-07T01:37:12.811Z,999.73
2023-05-07T01:38:13.847Z,999.75
2023-05-07T01:39:13.820Z,999.72
2023-05-07T01:40:18.760Z,999.72
2023-05-07T01:41:13.614Z,999.72
2023-05-07T01:42:13.851Z,999.69
2023-05-07T01:43:14.102Z,999.70
2023-05-07T01:44:13.309Z,999.69
2023-05-07T01:45:13.389Z,999.70
2023-05-07T01:46:18.408Z,999.69
2023-05-07T01:47:13.548Z,999.66
2023-05-07T01:48:13.447Z,999.66
2023-05-07T01:49:13.699Z,999.68
2023-05-07T01:50:15.471Z,999.63
2023-05-07T01:51:13.355Z,999.70
2023-05-07T01:52:13.275Z,999.71
2023-05-07T01:53:13.486Z,999.71
2023-05-07T01:54:13.400Z,999.73
2023-05-07T01:55:13.404Z,999.73
2023-05-07T01:56:13.231Z,999.73
2023-05-07T01:57:13.190Z,999.74
2023-05-07T01:58:13.119Z,999.72
2023-05-07T01:59:13.257Z,999.70
2023-05-07T02:00:13.759Z,999.77
2023-05-07T02:01:28.154Z,999.75
2023-05-07T02:03:14.035Z,999.77
2023-05-07T02:04:13.381Z,999.75
2023-05-07T02:05:13.685Z,999.78
2023-05-07T02:06:15.248Z,999.77
2023-05-07T02:07:13.485Z,999.71
2023-05-07T02:08:13.729Z,999.71
2023-05-07T02:09:14.105Z,999.71
2023-05-07T02:10:13.194Z,999.69
2023-05-07T02:11:19.579Z,999.67
2023-05-07T02:12:13.610Z,999.67
2023-05-07T02:13:14.658Z,999.67
2023-05-07T02:14:14.892Z,999.65
2023-05-07T02:15:51.416Z,999.64
2023-05-07T02:16:13.568Z,999.63
2023-05-07T02:17:13.815Z,999.62
2023-05-07T02:18:13.966Z,999.65
2023-05-07T02:19:13.440Z,999.64
2023-05-07T02:20:13.738Z,999.63
2023-05-07T02:21:14.202Z,999.65
2023-05-07T02:22:13.853Z,999.67
2023-05-07T02:23:13.911Z,999.64
2023-05-07T02:24:13.284Z,999.66
2023-05-07T02:25:13.406Z,999.66
2023-05-07T02:26:13.516Z,999.66
2023-05-07T02:27:13.643Z,999.68
2023-05-07T02:28:13.828Z,999.65
2023-05-07T02:29:13.883Z,999.64
2023-05-07T02:30:13.035Z,999.61
2023-05-07T02:31:12.986Z,999.62
2023-05-07T02:32:12.915Z,999.58
2023-05-07T02:33:13.635Z,999.61
2023-05-07T02:34:13.860Z,999.59
2023-05-07T02:35:13.796Z,999.61
2023-05-07T02:36:13.804Z,999.56
2023-05-07T02:37:13.921Z,999.58
2023-05-07T02:38:12.920Z,999.57
2023-05-07T02:39:13.318Z,999.58
2023-05-07T02:40:13.592Z,999.58
2023-05-07T02:41:13.888Z,999.61
2023-05-07T02:42:12.809Z,999.62
2023-05-07T02:43:14.197Z,999.59
2023-05-07T02:44:13.300Z,999.61
2023-05-07T02:45:13.295Z,999.57
2023-05-07T02:46:13.323Z,999.60
2023-05-07T02:47:13.308Z,999.58
2023-05-07T02:48:13.723Z,999.58
2023-05-07T02:49:13.715Z,999.57
2023-05-07T02:50:13.974Z,999.55
2023-05-07T02:51:13.182Z,999.58
2023-05-07T02:52:13.300Z,999.54
2023-05-07T02:53:13.155Z,999.51
2023-05-07T02:54:13.344Z,999.55
2023-05-07T02:55:13.746Z,999.53
2023-05-07T02:56:13.726Z,999.50
2023-05-07T02:57:13.930Z,999.51
2023-05-07T02:58:13.021Z,999.50
2023-05-07T02:59:12.841Z,999.54
2023-05-07T03:00:13.843Z,999.52
2023-05-07T03:01:13.809Z,999.50
2023-05-07T03:02:13.677Z,999.50
2023-05-07T03:03:13.748Z,999.54
2023-05-07T03:04:13.697Z,999.52
2023-05-07T03:05:13.706Z,999.53
2023-05-07T03:06:13.977Z,999.54
2023-05-07T03:07:13.315Z,999.54
2023-05-07T03:08:13.359Z,999.57
2023-05-07T03:09:13.506Z,999.55
2023-05-07T03:10:13.565Z,999.53
2023-05-07T03:11:13.628Z,999.55
2023-05-07T03:12:13.934Z,999.54
2023-05-07T03:13:12.906Z,999.56
2023-05-07T03:14:13.933Z,999.56
2023-05-07T03:15:13.108Z,999.58
2023-05-07T03:16:13.554Z,999.58
2023-05-07T03:17:13.561Z,999.59
2023-05-07T03:18:13.990Z,999.59
2023-05-07T03:19:13.260Z,999.59
2023-05-07T03:20:13.544Z,999.60
2023-05-07T03:21:13.803Z,999.60
2023-05-07T03:22:13.623Z,999.61
2023-05-07T03:23:13.844Z,999.63
2023-05-07T03:24:13.741Z,999.64
2023-05-07T03:25:13.774Z,999.63
2023-05-07T03:26:13.907Z,999.63
2023-05-07T03:27:13.634Z,999.59
2023-05-07T03:28:13.793Z,999.61
2023-05-07T03:29:13.832Z,999.62
2023-05-07T03:30:14.091Z,999.59
2023-05-07T03:31:13.383Z,999.60
2023-05-07T03:32:13.606Z,999.61
2023-05-07T03:33:13.753Z,999.61
2023-05-07T03:34:13.601Z,999.58
2023-05-07T03:35:13.792Z,999.56
2023-05-07T03:36:13.827Z,999.60
2023-05-07T03:37:13.906Z,999.58
2023-05-07T03:38:12.868Z,999.58
2023-05-07T03:39:13.792Z,999.59
2023-05-07T03:40:14.786Z,999.57
2023-05-07T03:41:12.810Z,999.58
2023-05-07T03:42:13.723Z,999.58
2023-05-07T03:43:13.743Z,999.58
2023-05-07T03:44:14.047Z,999.60
2023-05-07T03:45:13.039Z,999.61
2023-05-07T03:46:13.270Z,999.62
2023-05-07T03:47:13.181Z,999.69
2023-05-07T03:48:13.466Z,999.64
2023-05-07T03:49:13.467Z,999.68
2023-05-07T03:50:13.637Z,999.67
2023-05-07T03:51:18.967Z,999.71
2023-05-07T03:52:13.527Z,999.69
2023-05-07T03:53:13.790Z,999.72
2023-05-07T03:54:13.783Z,999.72
2023-05-07T03:55:13.723Z,999.72
2023-05-07T03:56:13.814Z,999.74
2023-05-07T03:57:13.689Z,999.76
2023-05-07T03:58:13.675Z,999.75
2023-05-07T03:59:13.669Z,999.76
2023-05-07T04:00:13.821Z,999.77
2023-05-07T04:01:13.314Z,999.75
2023-05-07T04:02:13.395Z,999.77
2023-05-07T04:03:13.453Z,999.76
2023-05-07T04:04:13.793Z,999.78
2023-05-07T04:05:13.806Z,999.75
2023-05-07T04:06:13.704Z,999.75
2023-05-07T04:07:13.795Z,999.77
2023-05-07T04:08:13.709Z,999.77
2023-05-07T04:09:13.616Z,999.77
2023-05-07T04:10:13.641Z,999.78
2023-05-07T04:11:13.742Z,999.79
2023-05-07T04:12:14.022Z,999.80
2023-05-07T04:13:12.944Z,999.81
2023-05-07T04:14:12.751Z,999.81
2023-05-07T04:15:13.661Z,999.80
2023-05-07T04:16:13.679Z,999.81
2023-05-07T04:17:13.739Z,999.84
2023-05-07T04:18:13.989Z,999.86
2023-05-07T04:19:13.195Z,999.80
2023-05-07T04:20:13.317Z,999.85
2023-05-07T04:21:13.621Z,999.84
2023-05-07T04:22:13.698Z,999.84
2023-05-07T04:23:13.611Z,999.80
2023-05-07T04:24:13.812Z,999.80
2023-05-07T04:25:13.899Z,999.83
2023-05-07T04:26:12.836Z,999.82
2023-05-07T04:27:13.766Z,999.79
2023-05-07T04:28:13.720Z,999.81
2023-05-07T04:29:13.630Z,999.82
2023-05-07T04:30:13.755Z,999.83
2023-05-07T04:31:12.862Z,999.77
2023-05-07T04:32:14.172Z,999.83
2023-05-07T04:33:13.688Z,999.83
2023-05-07T04:34:13.874Z,999.81
2023-05-07T04:35:12.813Z,999.79
2023-05-07T04:36:13.968Z,999.85
2023-05-07T04:37:13.238Z,999.83
2023-05-07T04:38:13.163Z,999.82
2023-05-07T04:39:13.050Z,999.82
2023-05-07T04:40:13.374Z,999.86
2023-05-07T04:41:13.656Z,999.85
2023-05-07T04:42:13.929Z,999.83
2023-05-07T04:43:13.160Z,999.85
2023-05-07T04:44:13.022Z,999.85
2023-05-07T04:45:12.927Z,999.85
2023-05-07T04:46:12.973Z,999.89
2023-05-07T04:47:13.997Z,999.90
2023-05-07T04:48:13.070Z,999.91
2023-05-07T04:49:13.207Z,999.90
2023-05-07T04:50:13.491Z,999.89
2023-05-07T04:51:13.446Z,999.93
2023-05-07T04:52:13.581Z,999.96
2023-05-07T04:53:13.596Z,999.94
2023-05-07T04:54:13.681Z,999.95
2023-05-07T04:55:13.718Z,999.98
2023-05-07T04:56:13.584Z,1000.02
2023-05-07T04:57:13.640Z,1000.02
2023-05-07T04:58:13.576Z,1000.04
2023-05-07T04:59:13.523Z,1000.00
2023-05-07T05:00:13.687Z,1000.04
2023-05-07T05:01:13.986Z,999.98
2023-05-07T05:02:13.068Z,999.95
2023-05-07T05:03:13.434Z,999.97
2023-05-07T05:04:13.408Z,999.95
2023-05-07T05:05:13.475Z,999.98
2023-05-07T05:06:13.471Z,999.97
2023-05-07T05:07:13.573Z,999.99
2023-05-07T05:08:14.002Z,999.99
2023-05-07T05:09:12.939Z,1000.01
2023-05-07T05:10:13.162Z,999.99
2023-05-07T05:11:13.437Z,1000.01
2023-05-07T05:12:13.436Z,999.99
2023-05-07T05:13:14.109Z,999.99
2023-05-07T05:14:13.106Z,999.95
2023-05-07T05:15:13.045Z,999.95
2023-05-07T05:16:12.929Z,999.99
2023-05-07T05:17:13.119Z,999.99
2023-05-07T05:18:13.193Z,999.99
2023-05-07T05:19:13.235Z,1000.00
2023-05-07T05:20:13.230Z,1000.01
2023-05-07T05:21:13.409Z,1000.02
2023-05-07T05:22:13.595Z,1000.00
2023-05-07T05:23:13.695Z,1000.04
2023-05-07T05:24:13.573Z,1000.03
2023-05-07T05:25:13.823Z,1000.06
2023-05-07T05:26:13.735Z,1000.05
2023-05-07T05:27:14.023Z,1000.05
2023-05-07T05:28:13.202Z,1000.07
2023-05-07T05:29:13.283Z,1000.05
2023-05-07T05:30:13.395Z,1000.09
2023-05-07T05:31:13.605Z,1000.08
2023-05-07T05:32:13.548Z,1000.06
2023-05-07T05:33:13.690Z,1000.08
2023-05-07T05:34:13.691Z,1000.11
2023-05-07T05:35:13.653Z,1000.08
2023-05-07T05:36:13.672Z,1000.09
2023-05-07T05:37:13.642Z,1000.11
2023-05-07T05:38:13.568Z,1000.13
2023-05-07T05:39:13.784Z,1000.11
2023-05-07T05:40:13.929Z,1000.15
2023-05-07T05:41:12.897Z,1000.14
2023-05-07T05:42:13.168Z,1000.17
2023-05-07T05:43:13.273Z,1000.14
2023-05-07T05:44:13.475Z,1000.14
2023-05-07T05:45:13.743Z,1000.13
2023-05-07T05:46:13.589Z,1000.12
2023-05-07T05:47:13.903Z,1000.10
2023-05-07T05:48:12.951Z,1000.11
2023-05-07T05:49:13.404Z,1000.15
2023-05-07T05:50:13.889Z,1000.14
2023-05-07T05:51:13.301Z,1000.15
2023-05-07T05:52:13.362Z,1000.17
2023-05-07T05:53:13.560Z,1000.13
2023-05-07T05:54:13.641Z,1000.13
2023-05-07T05:55:13.707Z,1000.15
2023-05-07T05:56:13.936Z,1000.11
2023-05-07T05:57:13.062Z,1000.14
2023-05-07T05:58:13.038Z,1000.12
2023-05-07T05:59:13.053Z,1000.11
2023-05-07T06:00:13.423Z,1000.09
2023-05-07T06:01:18.538Z,1000.11
2023-05-07T06:02:13.867Z,1000.12
2023-05-07T06:03:14.497Z,1000.13
2023-05-07T06:04:13.778Z,1000.14
2023-05-07T06:05:13.831Z,1000.15
2023-05-07T06:06:14.012Z,1000.16
2023-05-07T06:07:43.480Z,1000.17
2023-05-07T06:08:13.751Z,1000.16
2023-05-07T06:09:14.108Z,1000.13
2023-05-07T06:10:13.391Z,1000.18
2023-05-07T06:11:13.931Z,1000.17
2023-05-07T06:12:13.178Z,1000.17
2023-05-07T06:13:23.570Z,1000.20
2023-05-07T06:14:13.820Z,1000.21
2023-05-07T06:15:13.873Z,1000.21
2023-05-07T06:16:13.836Z,1000.25
2023-05-07T06:17:12.773Z,1000.27
2023-05-07T06:18:13.880Z,1000.28
2023-05-07T06:19:12.848Z,1000.30
2023-05-07T06:20:14.105Z,1000.29
2023-05-07T06:21:13.176Z,1000.29
2023-05-07T06:22:13.113Z,1000.33
2023-05-07T06:23:13.018Z,1000.32
2023-05-07T06:24:13.156Z,1000.35
2023-05-07T06:25:13.085Z,1000.33
2023-05-07T06:26:12.945Z,1000.34
2023-05-07T06:27:12.767Z,1000.31
2023-05-07T06:28:13.726Z,1000.32
2023-05-07T06:29:13.902Z,1000.33
2023-05-07T06:30:13.232Z,1000.34
2023-05-07T06:31:13.296Z,1000.32
2023-05-07T06:32:34.263Z,1000.34
2023-05-07T06:33:13.723Z,1000.32
2023-05-07T06:34:13.758Z,1000.37
2023-05-07T06:35:13.757Z,1000.36
2023-05-07T06:36:19.038Z,1000.42
2023-05-07T06:37:13.466Z,1000.37
2023-05-07T06:38:13.448Z,1000.43
2023-05-07T06:39:13.376Z,1000.36
2023-05-07T06:40:13.435Z,1000.42
2023-05-07T06:41:13.538Z,1000.37
2023-05-07T06:42:13.460Z,1000.38
2023-05-07T06:43:13.508Z,1000.37
2023-05-07T06:44:13.425Z,1000.40
2023-05-07T06:45:13.464Z,1000.38
2023-05-07T06:46:13.569Z,1000.42
2023-05-07T06:47:15.801Z,1000.46
2023-05-07T06:48:13.302Z,1000.47
2023-05-07T06:49:13.303Z,1000.46
2023-05-07T06:50:13.284Z,1000.51
2023-05-07T06:51:13.483Z,1000.51
2023-05-07T06:52:13.409Z,1000.51
2023-05-07T06:53:13.246Z,1000.48
2023-05-07T06:54:13.322Z,1000.49
2023-05-07T06:55:13.327Z,1000.50
2023-05-07T06:56:13.360Z,1000.58
2023-05-07T06:57:13.425Z,1000.57
2023-05-07T06:58:13.522Z,1000.54
2023-05-07T06:59:13.994Z,1000.56
2023-05-07T07:00:13.132Z,1000.57
2023-05-07T07:01:13.394Z,1000.54
2023-05-07T07:02:13.584Z,1000.54
2023-05-07T07:03:13.771Z,1000.49
2023-05-07T07:04:13.786Z,1000.51
2023-05-07T07:05:13.807Z,1000.54
2023-05-07T07:06:13.713Z,1000.46
2023-05-07T07:07:13.922Z,1000.50
2023-05-07T07:08:14.040Z,1000.49
2023-05-07T07:09:13.024Z,1000.50
2023-05-07T07:10:13.353Z,1000.53
2023-05-07T07:11:13.470Z,1000.49
2023-05-07T07:12:13.574Z,1000.56
2023-05-07T07:13:13.660Z,1000.53
2023-05-07T07:14:13.758Z,1000.49
2023-05-07T07:15:13.834Z,1000.48
2023-05-07T07:16:14.143Z,1000.48
2023-05-07T07:17:13.450Z,1000.52
2023-05-07T07:18:13.770Z,1000.48
2023-05-07T07:19:13.647Z,1000.46
2023-05-07T07:20:13.882Z,1000.46
2023-05-07T07:21:13.030Z,1000.46
2023-05-07T07:22:13.015Z,1000.46
2023-05-07T07:23:12.981Z,1000.43
2023-05-07T07:24:12.910Z,1000.40
2023-05-07T07:25:12.888Z,1000.42
2023-05-07T07:26:13.133Z,1000.41
2023-05-07T07:27:13.169Z,1000.41
2023-05-07T07:28:13.094Z,1000.44
2023-05-07T07:29:12.979Z,1000.45
2023-05-07T07:30:13.581Z,1000.45
2023-05-07T07:31:13.999Z,1000.45
2023-05-07T07:32:12.998Z,1000.46
2023-05-07T07:33:13.041Z,1000.48
2023-05-07T07:34:13.064Z,1000.51
2023-05-07T07:35:12.985Z,1000.56
2023-05-07T07:36:13.139Z,1000.55
2023-05-07T07:37:13.232Z,1000.56
2023-05-07T07:38:13.371Z,1000.58
2023-05-07T07:39:13.494Z,1000.58
2023-05-07T07:40:13.882Z,1000.58
2023-05-07T07:41:13.076Z,1000.58
2023-05-07T07:42:13.436Z,1000.57
2023-05-07T07:43:13.736Z,1000.57
2023-05-07T07:44:15.953Z,1000.55
2023-05-07T07:45:14.385Z,1000.53
2023-05-07T07:46:13.582Z,1000.52
2023-05-07T07:47:16.969Z,1000.50
2023-05-07T07:48:13.483Z,1000.48
2023-05-07T07:49:15.065Z,1000.45
2023-05-07T07:50:19.316Z,1000.45
2023-05-07T07:51:13.646Z,1000.41
2023-05-07T07:53:13.121Z,1000.44
2023-05-07T07:54:13.162Z,1000.44
2023-05-07T07:55:13.361Z,1000.46
2023-05-07T07:56:13.408Z,1000.47
2023-05-07T07:57:13.531Z,1000.48
2023-05-07T07:58:13.870Z,1000.48
2023-05-07T07:59:14.009Z,1000.47
2023-05-07T08:00:13.186Z,1000.53
2023-05-07T08:01:13.636Z,1000.57
2023-05-07T08:02:14.117Z,1000.57
2023-05-07T08:03:23.469Z,1000.60
2023-05-07T08:04:16.858Z,1000.59
2023-05-07T08:05:13.579Z,1000.64
2023-05-07T08:06:15.308Z,1000.63
2023-05-07T08:07:13.368Z,1000.60
2023-05-07T08:08:13.451Z,1000.66
2023-05-07T08:09:13.766Z,1000.69
2023-05-07T08:10:13.830Z,1000.64
2023-05-07T08:11:13.920Z,1000.66
2023-05-07T08:12:12.943Z,1000.66
2023-05-07T08:13:12.970Z,1000.68
2023-05-07T08:14:13.490Z,1000.70
2023-05-07T08:15:13.672Z,1000.71
2023-05-07T08:16:13.742Z,1000.71
2023-05-07T08:17:15.441Z,1000.73
2023-05-07T08:18:13.717Z,1000.72
2023-05-07T08:19:14.037Z,1000.72
2023-05-07T08:20:13.554Z,1000.73
2023-05-07T08:21:13.883Z,1000.74
2023-05-07T08:22:13.009Z,1000.69
2023-05-07T08:23:13.218Z,1000.73
2023-05-07T08:24:13.604Z,1000.73
2023-05-07T08:25:13.530Z,1000.73
2023-05-07T08:26:13.674Z,1000.74
2023-05-07T08:27:13.741Z,1000.73
2023-05-07T08:28:13.892Z,1000.73
2023-05-07T08:29:12.902Z,1000.76
2023-05-07T08:30:13.795Z,1000.76
2023-05-07T08:31:14.395Z,1000.73
2023-05-07T08:32:13.553Z,1000.73
2023-05-07T08:33:13.928Z,1000.76
2023-05-07T08:34:13.322Z,1000.71
2023-05-07T08:35:13.764Z,1000.72
2023-05-07T08:36:13.828Z,1000.72
2023-05-07T08:37:13.822Z,1000.77
2023-05-07T08:38:13.872Z,1000.75
2023-05-07T08:39:13.029Z,1000.72
2023-05-07T08:40:14.641Z,1000.72
2023-05-07T08:41:13.864Z,1000.78
2023-05-07T08:42:13.782Z,1000.73
2023-05-07T08:43:14.059Z,1000.79
2023-05-07T08:44:12.981Z,1000.78
2023-05-07T08:45:13.088Z,1000.76
2023-05-07T08:46:13.327Z,1000.78
2023-05-07T08:47:13.822Z,1000.79
2023-05-07T08:48:13.855Z,1000.78
2023-05-07T08:49:13.833Z,1000.79
2023-05-07T08:50:13.594Z,1000.77
2023-05-07T08:51:13.623Z,1000.77
2023-05-07T08:52:13.724Z,1000.81
2023-05-07T08:53:13.824Z,1000.79
2023-05-07T08:54:13.872Z,1000.77
2023-05-07T08:55:14.289Z,1000.84
2023-05-07T08:56:13.689Z,1000.81
2023-05-07T08:57:18.737Z,1000.81
2023-05-07T08:58:13.759Z,1000.80
2023-05-07T08:59:14.026Z,1000.79
2023-05-07T09:00:13.262Z,1000.79
2023-05-07T09:01:13.269Z,1000.76
2023-05-07T09:02:13.617Z,1000.77
2023-05-07T09:03:19.151Z,1000.76
2023-05-07T09:04:13.270Z,1000.70
2023-05-07T09:05:14.038Z,1000.72
2023-05-07T09:06:13.289Z,1000.72
2023-05-07T09:07:13.354Z,1000.71
2023-05-07T09:08:13.689Z,1000.75
2023-05-07T09:09:13.770Z,1000.71
2023-05-07T09:10:14.024Z,1000.71
2023-05-07T09:11:13.398Z,1000.72
2023-05-07T09:12:13.409Z,1000.77
2023-05-07T09:13:13.303Z,1000.71
2023-05-07T09:14:13.162Z,1000.69
2023-05-07T09:15:13.971Z,1000.72
2023-05-07T09:16:13.436Z,1000.71
2023-05-07T09:17:13.537Z,1000.72
2023-05-07T09:18:16.562Z,1000.73
2023-05-07T09:19:13.824Z,1000.69
2023-05-07T09:20:14.092Z,1000.70
2023-05-07T09:21:13.222Z,1000.73
2023-05-07T09:22:13.604Z,1000.69
2023-05-07T09:23:13.701Z,1000.70
2023-05-07T09:24:13.622Z,1000.71
2023-05-07T09:25:13.832Z,1000.67
2023-05-07T09:26:13.203Z,1000.77
2023-05-07T09:27:13.585Z,1000.73
2023-05-07T09:28:14.004Z,1000.72
2023-05-07T09:29:13.378Z,1000.72
2023-05-07T09:30:13.391Z,1000.73
2023-05-07T09:31:13.425Z,1000.72
2023-05-07T09:32:13.718Z,1000.70
2023-05-07T09:33:13.747Z,1000.72
2023-05-07T09:34:13.613Z,1000.71
2023-05-07T09:35:13.737Z,1000.73
2023-05-07T09:36:13.619Z,1000.72
2023-05-07T09:37:13.609Z,1000.68
2023-05-07T09:38:13.599Z,1000.78
2023-05-07T09:39:13.567Z,1000.76
2023-05-07T09:40:13.691Z,1000.75
2023-05-07T09:41:14.120Z,1000.73
2023-05-07T09:42:13.287Z,1000.73
2023-05-07T09:43:13.362Z,1000.73
2023-05-07T09:44:13.392Z,1000.79
2023-05-07T09:45:13.650Z,1000.82
2023-05-07T09:46:14.344Z,1000.83
2023-05-07T09:47:13.540Z,1000.86
2023-05-07T09:48:13.506Z,1000.88
2023-05-07T09:49:13.463Z,1000.84
2023-05-07T09:50:13.507Z,1000.84
2023-05-07T09:51:13.766Z,1000.79
2023-05-07T09:52:13.658Z,1000.74
2023-05-07T09:53:13.705Z,1000.86
2023-05-07T09:54:13.550Z,1000.81
2023-05-07T09:55:13.793Z,1000.84
2023-05-07T09:56:14.169Z,1000.83
2023-05-07T09:57:14.012Z,1000.81
2023-05-07T09:58:12.978Z,1000.83
2023-05-07T09:59:13.116Z,1000.80
2023-05-07T10:00:13.277Z,1000.81
2023-05-07T10:01:14.858Z,1000.85
2023-05-07T10:02:13.181Z,1000.83
2023-05-07T10:03:13.174Z,1000.84
2023-05-07T10:04:13.180Z,1000.87
2023-05-07T10:05:13.187Z,1000.75
2023-05-07T10:06:13.551Z,1000.84
2023-05-07T10:07:13.605Z,1000.85
2023-05-07T10:08:13.922Z,1000.76
2023-05-07T10:09:13.311Z,1000.84
2023-05-07T10:10:13.219Z,1000.83
2023-05-07T10:11:13.123Z,1000.84
2023-05-07T10:12:13.097Z,1000.85
2023-05-07T10:13:13.072Z,1000.79
2023-05-07T10:14:13.049Z,1000.80
2023-05-07T10:15:13.342Z,1000.80
2023-05-07T10:16:13.898Z,1000.82
2023-05-07T10:17:13.059Z,1000.84
2023-05-07T10:18:13.595Z,1000.80
2023-05-07T10:19:14.031Z,1000.78
2023-05-07T10:20:13.095Z,1000.72
2023-05-07T10:21:13.067Z,1000.73
2023-05-07T10:22:13.523Z,1000.74
2023-05-07T10:23:13.491Z,1000.75
2023-05-07T10:24:13.555Z,1000.69
2023-05-07T10:25:14.049Z,1000.69
2023-05-07T10:26:13.312Z,1000.66
2023-05-07T10:27:13.241Z,1000.63
2023-05-07T10:28:13.708Z,1000.65
2023-05-07T10:29:13.861Z,1000.70
2023-05-07T10:30:13.694Z,1000.71
2023-05-07T10:31:13.860Z,1000.70
2023-05-07T10:32:12.962Z,1000.72
2023-05-07T10:33:13.514Z,1000.65
2023-05-07T10:34:13.671Z,1000.72
2023-05-07T10:35:13.933Z,1000.69
2023-05-07T10:36:12.868Z,1000.68
2023-05-07T10:37:12.918Z,1000.67
2023-05-07T10:38:12.864Z,1000.74
2023-05-07T10:39:13.829Z,1000.72
2023-05-07T10:40:13.927Z,1000.74
2023-05-07T10:41:12.819Z,1000.73
2023-05-07T10:42:13.838Z,1000.75
2023-05-07T10:43:14.456Z,1000.77
2023-05-07T10:44:13.432Z,1000.76
2023-05-07T10:45:13.383Z,1000.79
2023-05-07T10:46:13.601Z,1000.80
2023-05-07T10:47:13.693Z,1000.81
2023-05-07T10:48:28.840Z,1000.80
2023-05-07T10:49:13.038Z,1000.81
2023-05-07T10:50:13.176Z,1000.75
2023-05-07T10:51:13.220Z,1000.78
2023-05-07T10:52:13.404Z,1000.74
2023-05-07T10:53:13.619Z,1000.72
2023-05-07T10:54:13.753Z,1000.68
2023-05-07T10:55:13.835Z,1000.66
2023-05-07T10:56:13.940Z,1000.70
2023-05-07T10:57:13.789Z,1000.75
2023-05-07T10:58:23.580Z,1000.72
2023-05-07T10:59:13.895Z,1000.73
2023-05-07T11:00:12.865Z,1000.76
2023-05-07T11:01:13.122Z,1000.77
2023-05-07T11:02:13.549Z,1000.74
2023-05-07T11:03:13.942Z,1000.72
2023-05-07T11:04:13.045Z,1000.72
2023-05-07T11:05:13.588Z,1000.75
2023-05-07T11:06:12.830Z,1000.76
2023-05-07T11:07:13.804Z,1000.78
2023-05-07T11:08:15.254Z,1000.74
2023-05-07T11:09:13.363Z,1000.76
2023-05-07T11:10:14.659Z,1000.69
2023-05-07T11:11:13.683Z,1000.74
2023-05-07T11:12:14.117Z,1000.69
2023-05-07T11:13:13.295Z,1000.65
2023-05-07T11:14:13.238Z,1000.66
2023-05-07T11:15:13.615Z,1000.72
2023-05-07T11:16:13.639Z,1000.66
2023-05-07T11:17:13.801Z,1000.66
2023-05-07T11:18:13.866Z,1000.67
2023-05-07T11:19:14.012Z,1000.67
2023-05-07T11:20:13.263Z,1000.68
2023-05-07T11:21:13.631Z,1000.69
2023-05-07T11:22:13.660Z,1000.65
2023-05-07T11:23:13.647Z,1000.65
2023-05-07T11:24:14.081Z,1000.67
2023-05-07T11:25:13.163Z,1000.68
2023-05-07T11:26:13.341Z,1000.63
2023-05-07T11:27:18.350Z,1000.60
2023-05-07T11:28:13.385Z,1000.65
2023-05-07T11:29:13.483Z,1000.63
2023-05-07T11:30:13.450Z,1000.67
2023-05-07T11:31:13.436Z,1000.63
2023-05-07T11:32:13.522Z,1000.68
2023-05-07T11:33:15.339Z,1000.65
2023-05-07T11:34:13.318Z,1000.66
2023-05-07T11:35:21.656Z,1000.69
2023-05-07T11:36:13.650Z,1000.70
2023-05-07T11:37:13.643Z,1000.69
2023-05-07T11:38:13.589Z,1000.71
2023-05-07T11:39:13.503Z,1000.67
2023-05-07T11:40:13.423Z,1000.71
2023-05-07T11:41:13.329Z,1000.66
2023-05-07T11:42:13.211Z,1000.68
2023-05-07T11:43:13.170Z,1000.69
2023-05-07T11:44:13.184Z,1000.69
2023-05-07T11:45:13.294Z,1000.71
2023-05-07T11:46:13.613Z,1000.68
2023-05-07T11:47:13.588Z,1000.69
2023-05-07T11:48:13.624Z,1000.68
2023-05-07T11:49:13.724Z,1000.72
2023-05-07T11:50:15.151Z,1000.70
2023-05-07T11:51:13.332Z,1000.68
2023-05-07T11:52:13.320Z,1000.70
2023-05-07T11:53:13.977Z,1000.69
2023-05-07T11:54:13.553Z,1000.66
2023-05-07T11:55:13.879Z,1000.70
2023-05-07T11:56:13.438Z,1000.70
2023-05-07T11:57:13.627Z,1000.65
2023-05-07T11:58:13.670Z,1000.68
2023-05-07T11:59:13.563Z,1000.67
2023-05-07T12:00:13.719Z,1000.63
2023-05-07T12:01:13.659Z,1000.68
2023-05-07T12:02:13.089Z,1000.70
2023-05-07T12:03:13.065Z,1000.70
2023-05-07T12:04:13.066Z,1000.73
2023-05-07T12:05:13.528Z,1000.72
2023-05-07T12:06:12.655Z,1000.68
2023-05-07T12:07:49.013Z,1000.70
2023-05-07T12:08:13.885Z,1000.70
2023-05-07T12:09:12.897Z,1000.74
2023-05-07T12:10:12.881Z,1000.74
2023-05-07T12:11:12.883Z,1000.74
2023-05-07T12:12:12.904Z,1000.72
2023-05-07T12:13:12.960Z,1000.70
2023-05-07T12:14:13.406Z,1000.75
2023-05-07T12:15:13.689Z,1000.70
2023-05-07T12:16:13.118Z,1000.74
2023-05-07T12:17:13.481Z,1000.75